createdAt,value
2022-11-26T00:02:21.680Z,36.23
2022-11-26T00:04:50.519Z,35.87
2022-11-26T00:07:23.531Z,36.37
2022-11-26T00:09:51.454Z,35.43
2022-11-26T00:12:22.320Z,36.57
2022-11-26T00:14:50.673Z,36.60
2022-11-26T00:17:19.491Z,37.10
2022-11-26T00:19:47.685Z,38.30
2022-11-26T00:22:30.636Z,36.63
2022-11-26T00:24:59.056Z,36.17
2022-11-26T00:27:29.089Z,34.63
2022-11-26T00:29:56.861Z,37.10
2022-11-26T00:32:26.907Z,38.07
2022-11-26T00:34:54.549Z,37.70
2022-11-26T00:37:28.440Z,37.73
2022-11-26T00:39:57.491Z,35.60
2022-11-26T00:42:26.113Z,35.83
2022-11-26T00:44:53.881Z,38.70
2022-11-26T00:47:22.088Z,35.10
2022-11-26T00:49:49.835Z,34.13
2022-11-26T00:52:34.761Z,38.67
2022-11-26T00:55:14.551Z,37.03
2022-11-26T00:57:42.866Z,35.70
2022-11-26T01:00:19.083Z,37.83
2022-11-26T01:02:48.041Z,35.73
2022-11-26T01:05:16.323Z,37.30
2022-11-26T01:07:45.468Z,36.73
2022-11-26T01:10:26.334Z,36.47
2022-11-26T01:12:56.830Z,36.63
2022-11-26T01:15:26.418Z,37.53
2022-11-26T01:17:55.067Z,35.93
2022-11-26T01:20:29.747Z,41.67
2022-11-26T01:22:59.592Z,37.30
2022-11-26T01:25:27.928Z,38.53
2022-11-26T01:27:56.779Z,37.40
2022-11-26T01:30:30.008Z,42.50
2022-11-26T01:33:01.091Z,40.23
2022-11-26T01:35:29.804Z,39.47
2022-11-26T01:37:58.383Z,38.97
2022-11-26T01:40:30.883Z,38.20
2022-11-26T01:43:23.159Z,38.13
2022-11-26T01:45:51.209Z,38.83
2022-11-26T01:48:34.872Z,34.50
2022-11-26T01:51:06.762Z,36.93
2022-11-26T01:53:41.355Z,35.27
2022-11-26T01:56:31.600Z,38.03
2022-11-26T01:59:20.491Z,38.47
2022-11-26T02:01:51.707Z,36.17
2022-11-26T02:04:25.740Z,34.33
2022-11-26T02:06:56.136Z,32.20
2022-11-26T02:09:26.413Z,37.30
2022-11-26T02:11:54.846Z,35.23
2022-11-26T02:14:37.399Z,33.63
2022-11-26T02:17:30.395Z,36.40
2022-11-26T02:20:04.453Z,38.03
2022-11-26T02:23:16.942Z,37.77
2022-11-26T02:26:03.547Z,37.27
2022-11-26T02:28:52.764Z,35.17
2022-11-26T02:31:35.895Z,35.30
2022-11-26T02:34:13.920Z,34.90
2022-11-26T02:37:02.238Z,39.23
2022-11-26T02:39:30.990Z,38.60
2022-11-26T02:42:04.323Z,37.57
2022-11-26T02:44:44.226Z,38.07
2022-11-26T02:47:16.757Z,41.33
2022-11-26T02:49:46.670Z,40.93
2022-11-26T02:52:17.243Z,36.87
2022-11-26T02:54:46.028Z,37.70
2022-11-26T02:57:16.207Z,36.87
2022-11-26T02:59:44.481Z,38.27
2022-11-26T03:02:32.270Z,38.27
2022-11-26T03:05:03.065Z,36.47
2022-11-26T03:07:33.075Z,36.17
2022-11-26T03:10:02.118Z,38.20
2022-11-26T03:12:30.652Z,40.47
2022-11-26T03:14:58.430Z,36.63
2022-11-26T03:17:26.561Z,35.70
2022-11-26T03:19:56.643Z,41.87
2022-11-26T03:22:24.820Z,39.07
2022-11-26T03:24:52.700Z,41.93
2022-11-26T03:27:21.058Z,41.43
2022-11-26T03:29:49.032Z,39.83
2022-11-26T03:32:17.473Z,41.87
2022-11-26T03:34:45.376Z,41.93
2022-11-26T03:37:13.732Z,40.17
2022-11-26T03:39:41.894Z,41.93
2022-11-26T03:42:10.167Z,46.73
2022-11-26T03:44:38.770Z,41.47
2022-11-26T03:47:07.327Z,37.97
2022-11-26T03:49:35.417Z,43.33
2022-11-26T03:52:04.389Z,43.70
2022-11-26T03:54:32.168Z,45.93
2022-11-26T03:57:00.047Z,43.57
2022-11-26T03:59:28.051Z,43.73
2022-11-26T04:01:57.193Z,48.10
2022-11-26T04:04:25.102Z,42.97
2022-11-26T04:06:53.355Z,40.40
2022-11-26T04:09:20.907Z,45.80
2022-11-26T04:11:50.000Z,47.80
2022-11-26T04:14:17.674Z,41.27
2022-11-26T04:16:45.881Z,39.97
2022-11-26T04:19:14.113Z,38.70
2022-11-26T04:21:42.170Z,35.97
2022-11-26T04:24:10.369Z,41.73
2022-11-26T04:26:41.568Z,36.70
2022-11-26T04:29:09.365Z,36.03
2022-11-26T04:31:37.684Z,37.47
2022-11-26T04:34:05.476Z,42.77
2022-11-26T04:36:33.468Z,39.97
2022-11-26T04:39:01.449Z,41.67
2022-11-26T04:41:29.776Z,37.83
2022-11-26T04:43:57.536Z,42.53
2022-11-26T04:46:25.647Z,36.40
2022-11-26T04:48:53.454Z,42.60
2022-11-26T04:51:22.107Z,40.83
2022-11-26T04:53:54.523Z,38.30
2022-11-26T04:56:24.537Z,42.70
2022-11-26T04:58:52.434Z,40.83
2022-11-26T05:01:20.707Z,40.10
2022-11-26T05:03:48.684Z,36.90
2022-11-26T05:06:17.221Z,36.50
2022-11-26T05:08:45.193Z,37.77
2022-11-26T05:11:13.807Z,37.60
2022-11-26T05:13:42.331Z,36.13
2022-11-26T05:16:10.795Z,38.97
2022-11-26T05:18:38.924Z,37.80
2022-11-26T05:21:07.425Z,35.57
2022-11-26T05:23:35.496Z,35.20
2022-11-26T05:26:04.061Z,31.83
2022-11-26T05:28:31.843Z,29.50
2022-11-26T05:31:01.869Z,29.43
2022-11-26T05:33:30.491Z,30.17
2022-11-26T05:35:59.176Z,31.27
2022-11-26T05:38:27.073Z,30.13
2022-11-26T05:40:58.324Z,30.00
2022-11-26T05:43:26.076Z,29.30
2022-11-26T05:45:55.888Z,28.60
2022-11-26T05:48:24.893Z,32.60
2022-11-26T05:51:00.124Z,30.10
2022-11-26T05:53:28.068Z,35.60
2022-11-26T05:55:56.342Z,33.10
2022-11-26T05:58:24.358Z,33.80
2022-11-26T06:00:53.181Z,31.40
2022-11-26T06:03:21.093Z,31.67
2022-11-26T06:05:49.605Z,31.40
2022-11-26T06:08:17.386Z,33.40
2022-11-26T06:10:45.917Z,29.33
2022-11-26T06:13:14.347Z,28.60
2022-11-26T06:15:42.676Z,29.70
2022-11-26T06:18:11.175Z,28.17
2022-11-26T06:20:39.716Z,29.73
2022-11-26T06:23:07.994Z,28.30
2022-11-26T06:25:36.495Z,26.63
2022-11-26T06:28:04.379Z,26.27
2022-11-26T06:30:32.559Z,28.00
2022-11-26T06:33:01.125Z,27.27
2022-11-26T06:35:29.378Z,27.90
2022-11-26T06:37:57.460Z,24.47
2022-11-26T06:40:25.794Z,24.57
2022-11-26T06:42:54.543Z,24.10
2022-11-26T06:45:24.309Z,24.73
2022-11-26T06:47:52.813Z,25.17
2022-11-26T06:50:23.130Z,22.93
2022-11-26T06:52:55.049Z,21.63
2022-11-26T06:55:24.220Z,22.83
2022-11-26T06:57:53.651Z,20.43
2022-11-26T07:00:22.409Z,21.53
2022-11-26T07:02:50.338Z,22.13
2022-11-26T07:05:18.645Z,21.80
2022-11-26T07:07:46.492Z,20.23
2022-11-26T07:10:14.683Z,19.80
2022-11-26T07:12:43.062Z,20.30
2022-11-26T07:15:12.164Z,18.03
2022-11-26T07:17:40.187Z,17.73
2022-11-26T07:20:09.543Z,20.03
2022-11-26T07:22:37.608Z,21.50
2022-11-26T07:25:12.151Z,20.53
2022-11-26T07:27:40.907Z,17.57
2022-11-26T07:30:10.194Z,19.23
2022-11-26T07:32:38.240Z,19.90
2022-11-26T07:35:06.994Z,19.47
2022-11-26T07:37:35.198Z,19.43
2022-11-26T07:40:04.978Z,19.83
2022-11-26T07:42:33.844Z,18.83
2022-11-26T07:45:03.984Z,20.77
2022-11-26T07:47:33.076Z,21.27
2022-11-26T07:50:01.763Z,18.70
2022-11-26T07:52:29.821Z,20.33
2022-11-26T07:54:57.763Z,21.93
2022-11-26T07:57:25.483Z,21.10
2022-11-26T07:59:53.656Z,22.33
2022-11-26T08:02:21.313Z,21.00
2022-11-26T08:04:49.228Z,20.77
2022-11-26T08:07:23.269Z,20.20
2022-11-26T08:09:56.356Z,21.47
2022-11-26T08:12:24.090Z,21.47
2022-11-26T08:14:52.061Z,22.30
2022-11-26T08:17:19.607Z,21.43
2022-11-26T08:19:48.610Z,21.17
2022-11-26T08:22:16.504Z,23.43
2022-11-26T08:24:44.736Z,20.67
2022-11-26T08:27:12.882Z,21.50
2022-11-26T08:29:41.046Z,20.33
2022-11-26T08:32:09.459Z,20.93
2022-11-26T08:34:38.426Z,20.07
2022-11-26T08:37:06.268Z,20.10
2022-11-26T08:39:34.440Z,22.03
2022-11-26T08:42:03.376Z,19.90
2022-11-26T08:44:31.813Z,22.90
2022-11-26T08:46:59.575Z,21.43
2022-11-26T08:49:27.561Z,21.43
2022-11-26T08:51:58.634Z,20.13
2022-11-26T08:54:27.619Z,18.33
2022-11-26T08:56:55.711Z,18.43
2022-11-26T08:59:24.463Z,17.90
2022-11-26T09:01:52.654Z,19.03
2022-11-26T09:04:21.166Z,18.23
2022-11-26T09:06:51.488Z,17.57
2022-11-26T09:09:20.289Z,18.20
2022-11-26T09:11:57.579Z,19.10
2022-11-26T09:14:30.943Z,17.57
2022-11-26T09:17:00.462Z,17.70
2022-11-26T09:19:29.586Z,17.70
2022-11-26T09:21:58.792Z,17.33
2022-11-26T09:24:27.391Z,18.03
2022-11-26T09:26:55.183Z,17.43
2022-11-26T09:29:24.679Z,21.43
2022-11-26T09:34:40.776Z,16.97
2022-11-26T09:37:08.988Z,19.83
2022-11-26T09:39:37.512Z,18.93
2022-11-26T09:42:18.099Z,20.00
2022-11-26T09:45:20.779Z,17.70
2022-11-26T09:47:52.435Z,18.07
2022-11-26T09:50:27.863Z,15.50
2022-11-26T09:53:17.231Z,17.10
2022-11-26T09:55:49.691Z,17.13
2022-11-26T09:58:58.142Z,17.93
2022-11-26T10:01:27.023Z,16.53
2022-11-26T10:03:55.020Z,16.57
2022-11-26T10:06:46.402Z,15.17
2022-11-26T10:09:43.962Z,13.87
2022-11-26T10:12:25.909Z,17.20
2022-11-26T10:15:08.955Z,16.20
2022-11-26T10:17:58.078Z,16.27
2022-11-26T10:20:40.604Z,17.30
2022-11-26T10:23:23.154Z,16.03
2022-11-26T10:25:58.616Z,16.30
2022-11-26T10:28:51.198Z,17.40
2022-11-26T10:31:29.602Z,16.87
2022-11-26T10:34:02.351Z,16.40
2022-11-26T10:36:39.781Z,17.13
2022-11-26T10:39:12.682Z,16.30
2022-11-26T10:41:40.531Z,17.37
2022-11-26T10:44:33.047Z,16.40
2022-11-26T10:47:18.785Z,18.27
2022-11-26T10:49:46.707Z,18.13
2022-11-26T10:52:17.932Z,17.20
2022-11-26T10:54:47.563Z,16.80
2022-11-26T10:57:19.499Z,16.30
2022-11-26T10:59:53.791Z,18.07
2022-11-26T11:02:31.047Z,18.27
2022-11-26T11:05:02.861Z,16.90
2022-11-26T11:07:38.154Z,18.40
2022-11-26T11:10:18.747Z,16.53
2022-11-26T11:13:12.443Z,15.40
2022-11-26T11:15:41.529Z,15.40
2022-11-26T11:18:20.569Z,17.97
2022-11-26T11:20:57.428Z,17.13
2022-11-26T11:23:52.636Z,17.87
2022-11-26T11:26:24.390Z,18.93
2022-11-26T11:28:54.348Z,17.17
2022-11-26T11:31:24.442Z,17.27
2022-11-26T11:34:04.235Z,17.23
2022-11-26T11:36:32.687Z,16.20
2022-11-26T11:39:02.470Z,15.63
2022-11-26T11:41:39.536Z,17.73
2022-11-26T11:44:18.436Z,17.73
2022-11-26T11:47:11.434Z,16.03
2022-11-26T11:49:56.379Z,17.10
2022-11-26T11:52:49.901Z,15.90
2022-11-26T11:55:32.468Z,17.90
2022-11-26T11:58:54.478Z,17.00
2022-11-26T12:01:49.064Z,16.37
2022-11-26T12:04:39.466Z,15.47
2022-11-26T12:07:15.732Z,14.77
2022-11-26T12:09:49.438Z,14.63
2022-11-26T12:12:38.168Z,16.63
2022-11-26T12:15:25.657Z,14.97
2022-11-26T12:18:31.718Z,15.87
2022-11-26T12:21:08.485Z,16.00
2022-11-26T12:23:50.823Z,14.93
2022-11-26T12:26:30.339Z,14.10
2022-11-26T12:29:05.912Z,14.60
2022-11-26T12:31:46.082Z,14.80
2022-11-26T12:34:24.547Z,14.00
2022-11-26T12:37:14.107Z,14.90
2022-11-26T12:39:53.364Z,14.23
2022-11-26T12:42:35.084Z,16.17
2022-11-26T12:45:21.149Z,16.10
2022-11-26T12:48:00.436Z,15.87
2022-11-26T12:50:44.530Z,15.40
2022-11-26T12:53:34.358Z,15.87
2022-11-26T12:56:12.322Z,17.07
2022-11-26T12:58:46.274Z,16.47
2022-11-26T13:01:13.731Z,15.60
2022-11-26T13:03:43.020Z,16.00
2022-11-26T13:06:38.501Z,16.43
2022-11-26T13:09:23.951Z,16.53
2022-11-26T13:12:11.716Z,16.33
2022-11-26T13:15:13.898Z,16.30
2022-11-26T13:17:46.457Z,15.93
2022-11-26T13:20:54.425Z,16.00
2022-11-26T13:23:34.591Z,17.30
2022-11-26T13:26:10.795Z,16.57
2022-11-26T13:29:08.366Z,19.00
2022-11-26T13:32:18.213Z,16.40
2022-11-26T13:35:17.108Z,15.87
2022-11-26T13:38:21.246Z,17.37
2022-11-26T13:40:59.061Z,17.07
2022-11-26T13:43:32.860Z,15.73
2022-11-26T13:46:10.156Z,16.10
2022-11-26T13:48:55.763Z,15.53
2022-11-26T13:51:37.275Z,15.53
2022-11-26T13:54:24.029Z,16.27
2022-11-26T13:57:02.113Z,16.27
2022-11-26T13:59:31.564Z,18.30
2022-11-26T14:01:58.941Z,16.70
2022-11-26T14:04:27.155Z,17.10
2022-11-26T14:07:06.773Z,16.17
2022-11-26T14:09:43.218Z,16.97
2022-11-26T14:12:12.049Z,16.87
2022-11-26T14:14:41.246Z,19.50
2022-11-26T14:17:08.720Z,18.00
2022-11-26T14:19:44.976Z,15.63
2022-11-26T14:22:21.312Z,17.50
2022-11-26T14:24:51.591Z,17.00
2022-11-26T14:27:20.096Z,15.37
2022-11-26T14:29:54.512Z,15.70
2022-11-26T14:32:27.295Z,16.13
2022-11-26T14:34:57.211Z,17.90
2022-11-26T14:37:31.276Z,17.73
2022-11-26T14:40:08.254Z,18.00
2022-11-26T14:42:35.484Z,16.13
2022-11-26T14:45:24.350Z,16.47
2022-11-26T14:47:53.231Z,16.17
2022-11-26T14:50:24.778Z,15.80
2022-11-26T14:52:58.839Z,18.00
2022-11-26T14:55:30.351Z,16.13
2022-11-26T14:58:09.164Z,18.20
2022-11-26T15:00:37.746Z,16.53
2022-11-26T15:03:18.874Z,15.70
2022-11-26T15:05:46.530Z,15.80
2022-11-26T15:08:19.447Z,16.43
2022-11-26T15:11:08.494Z,16.87
2022-11-26T15:13:41.825Z,15.03
2022-11-26T15:16:27.778Z,17.63
2022-11-26T15:18:55.765Z,15.03
2022-11-26T15:21:26.791Z,14.87
2022-11-26T15:23:57.010Z,16.10
2022-11-26T15:26:27.225Z,14.50
2022-11-26T15:28:54.346Z,15.43
2022-11-26T15:31:22.017Z,16.10
2022-11-26T15:33:50.849Z,18.37
2022-11-26T15:36:19.784Z,17.60
2022-11-26T15:39:03.172Z,18.47
2022-11-26T15:41:32.007Z,19.43
2022-11-26T15:44:00.522Z,16.40
2022-11-26T15:46:35.163Z,14.93
2022-11-26T15:49:10.032Z,15.20
2022-11-26T15:51:55.586Z,14.70
2022-11-26T15:54:38.409Z,15.57
2022-11-26T15:57:35.498Z,13.87
2022-11-26T16:00:07.194Z,15.43
2022-11-26T16:02:34.938Z,13.30
2022-11-26T16:05:03.966Z,15.37
2022-11-26T16:07:33.421Z,14.17
2022-11-26T16:10:16.979Z,12.53
2022-11-26T16:13:16.246Z,13.90
2022-11-26T16:16:13.089Z,15.67
2022-11-26T16:18:45.005Z,15.07
2022-11-26T16:21:21.878Z,15.43
2022-11-26T16:23:56.905Z,14.77
2022-11-26T16:26:24.771Z,13.50
2022-11-26T16:28:53.269Z,13.67
2022-11-26T16:31:21.295Z,14.40
2022-11-26T16:33:48.939Z,14.97
2022-11-26T16:36:21.195Z,15.73
2022-11-26T16:38:49.629Z,14.33
2022-11-26T16:41:19.191Z,16.43
2022-11-26T16:43:47.268Z,15.83
2022-11-26T16:46:20.215Z,16.03
2022-11-26T16:48:48.379Z,15.67
2022-11-26T16:51:16.327Z,12.87
2022-11-26T16:53:45.136Z,14.80
2022-11-26T16:56:23.114Z,15.33
2022-11-26T16:58:51.722Z,15.20
2022-11-26T17:01:18.984Z,14.73
2022-11-26T17:03:46.623Z,13.80
2022-11-26T17:06:24.247Z,13.43
2022-11-26T17:08:54.558Z,15.10
2022-11-26T17:11:22.222Z,14.70
2022-11-26T17:13:50.021Z,14.70
2022-11-26T17:16:19.883Z,14.33
2022-11-26T17:18:48.379Z,12.97
2022-11-26T17:21:16.199Z,13.90
2022-11-26T17:23:43.712Z,12.23
2022-11-26T17:26:21.722Z,12.33
2022-11-26T17:28:50.102Z,12.93
2022-11-26T17:31:17.969Z,11.83
2022-11-26T17:33:45.659Z,12.40
2022-11-26T17:36:20.353Z,11.17
2022-11-26T17:38:49.808Z,11.43
2022-11-26T17:41:17.769Z,12.33
2022-11-26T17:43:45.269Z,11.80
2022-11-26T17:46:19.493Z,12.90
2022-11-26T17:48:47.858Z,12.87
2022-11-26T17:51:15.992Z,11.23
2022-11-26T17:53:44.320Z,11.97
2022-11-26T17:56:20.386Z,12.03
2022-11-26T17:58:50.440Z,11.87
2022-11-26T18:01:18.534Z,12.33
2022-11-26T18:03:47.215Z,11.73
2022-11-26T18:06:20.724Z,11.00
2022-11-26T18:08:48.949Z,9.97
2022-11-26T18:11:16.654Z,9.33
2022-11-26T18:13:45.687Z,9.33
2022-11-26T18:16:14.278Z,10.20
2022-11-26T18:18:45.309Z,9.90
2022-11-26T18:21:14.280Z,11.13
2022-11-26T18:23:49.504Z,11.63
2022-11-26T18:29:15.923Z,10.23
2022-11-26T18:31:44.303Z,12.03
2022-11-26T18:34:11.967Z,11.60
2022-11-26T18:36:39.848Z,11.07
2022-11-26T18:39:07.438Z,13.07
2022-11-26T18:41:38.727Z,13.20
2022-11-26T18:44:07.013Z,13.30
2022-11-26T18:49:21.132Z,12.27
2022-11-26T18:51:54.943Z,12.73
2022-11-26T18:55:14.880Z,10.20
2022-11-26T18:57:42.128Z,11.40
2022-11-26T19:00:09.638Z,13.17
2022-11-26T19:02:37.014Z,11.17
2022-11-26T19:05:05.417Z,13.30
2022-11-26T19:07:33.549Z,13.90
2022-11-26T19:10:51.295Z,9.30
2022-11-26T19:16:22.630Z,10.30
2022-11-26T19:18:49.906Z,14.03
2022-11-26T19:21:25.736Z,12.10
2022-11-26T19:23:54.652Z,11.03
2022-11-26T19:26:22.389Z,11.83
2022-11-26T19:29:48.173Z,11.77
2022-11-26T19:32:33.278Z,13.63
2022-11-26T19:35:05.556Z,11.63
2022-11-26T19:37:33.100Z,14.53
2022-11-26T19:40:00.445Z,14.20
2022-11-26T19:42:29.954Z,16.27
2022-11-26T19:44:57.198Z,14.20
2022-11-26T19:47:42.704Z,13.07
2022-11-26T19:50:28.646Z,13.77
2022-11-26T19:52:55.673Z,14.23
2022-11-26T19:55:23.141Z,15.07
2022-11-26T19:57:50.147Z,14.93
2022-11-26T20:00:17.645Z,14.90
2022-11-26T20:02:44.697Z,16.87
2022-11-26T20:05:31.489Z,15.70
2022-11-26T20:08:17.212Z,14.00
2022-11-26T20:11:17.784Z,14.27
2022-11-26T20:13:47.352Z,16.20
2022-11-26T20:16:20.675Z,15.80
2022-11-26T20:18:48.885Z,15.40
2022-11-26T20:21:25.614Z,17.00
2022-11-26T20:25:06.625Z,15.63
2022-11-26T20:27:48.680Z,16.47
2022-11-26T20:30:15.854Z,16.13
2022-11-26T20:32:43.080Z,16.50
2022-11-26T20:35:11.051Z,16.60
2022-11-26T20:37:38.296Z,16.33
2022-11-26T20:40:05.992Z,17.33
2022-11-26T20:43:31.619Z,17.33
2022-11-26T20:46:06.929Z,17.87
2022-11-26T20:48:35.884Z,16.10
2022-11-26T20:51:04.106Z,18.83
2022-11-26T20:53:31.802Z,18.83
2022-11-26T20:55:58.885Z,19.30
2022-11-26T20:58:27.398Z,21.23
2022-11-26T21:01:38.524Z,20.87
2022-11-26T21:04:32.234Z,18.97
2022-11-26T21:06:59.718Z,16.93
2022-11-26T21:09:27.050Z,17.23
2022-11-26T21:11:54.045Z,19.03
2022-11-26T21:14:21.358Z,18.80
2022-11-26T21:16:49.089Z,17.43
2022-11-26T21:19:27.168Z,21.87
2022-11-26T21:22:35.138Z,17.93
2022-11-26T21:25:02.440Z,16.43
2022-11-26T21:27:29.624Z,16.13
2022-11-26T21:29:56.881Z,18.23
2022-11-26T21:32:23.849Z,18.73
2022-11-26T21:34:51.097Z,17.23
2022-11-26T21:37:20.430Z,19.60
2022-11-26T21:39:58.821Z,18.23
2022-11-26T21:42:26.368Z,17.97
2022-11-26T21:44:53.562Z,20.63
2022-11-26T21:47:20.558Z,18.70
2022-11-26T21:49:47.774Z,17.33
2022-11-26T21:52:15.213Z,16.53
2022-11-26T21:54:42.634Z,18.70
2022-11-26T21:57:32.144Z,17.60
2022-11-26T22:00:05.392Z,16.73
2022-11-26T22:02:32.568Z,17.53
2022-11-26T22:04:59.834Z,15.47
2022-11-26T22:07:27.070Z,18.00
2022-11-26T22:09:54.495Z,16.77
2022-11-26T22:12:21.648Z,15.80
2022-11-26T22:14:57.840Z,18.73
2022-11-26T22:17:46.667Z,14.67
2022-11-26T22:20:14.266Z,16.37
2022-11-26T22:22:41.204Z,17.70
2022-11-26T22:25:08.674Z,17.33
2022-11-26T22:27:35.624Z,15.83
2022-11-26T22:30:02.950Z,17.03
2022-11-26T22:33:26.556Z,16.13
2022-11-26T22:36:19.780Z,18.23
2022-11-26T22:38:47.672Z,15.87
2022-11-26T22:41:15.742Z,16.40
2022-11-26T22:43:43.370Z,16.97
2022-11-26T22:46:16.691Z,16.57
2022-11-26T22:48:48.215Z,16.13
2022-11-26T22:51:26.686Z,15.63
2022-11-26T22:54:01.666Z,17.40
2022-11-26T22:56:29.405Z,15.17
2022-11-26T22:58:56.409Z,18.00
2022-11-26T23:01:29.567Z,16.20
2022-11-26T23:03:59.939Z,18.27
2022-11-26T23:06:29.464Z,19.57
2022-11-26T23:08:57.950Z,17.53
2022-11-26T23:11:42.132Z,17.90
2022-11-26T23:14:45.417Z,16.83
2022-11-26T23:17:12.693Z,15.73
2022-11-26T23:19:40.026Z,18.63
2022-11-26T23:22:07.572Z,18.90
2022-11-26T23:24:35.042Z,18.03
2022-11-26T23:27:02.285Z,18.17
2022-11-26T23:30:03.384Z,16.73
2022-11-26T23:32:32.575Z,16.40
2022-11-26T23:34:59.798Z,15.83
2022-11-26T23:37:27.038Z,18.50
2022-11-26T23:39:53.975Z,16.43
2022-11-26T23:42:21.200Z,17.43
2022-11-26T23:44:48.194Z,18.50
2022-11-26T23:47:24.398Z,16.40
2022-11-26T23:50:15.155Z,17.47
2022-11-26T23:52:42.530Z,16.47
2022-11-26T23:55:09.974Z,15.13
2022-11-26T23:57:37.286Z,17.33
